Paradise Valley, Canada
Current Conditions -  °F | °C
As of 3:00 PM on Friday 24 Oct 2014 (Local Time) from CYLL Reporting Station
Broken Clouds Broken Clouds  
Wind Chill: 41°   Ceiling: 25000
Heat Index: 48°   Visibility: 15mi
Dew Point: 23°   Wind: 22mph
Humidity: 37%   Direction: 290°WNW
Pressure: 29.8"   Gusts: 33mph
Location:  53.03°N, 110.33°W
Report Text: CYLL 242100Z 29019G29KT 15SM FEW045 BKN250 09/M05 A2980 RMK SC2CI3 SLP113
Loading
Personal Weather Stations






























Interactive Weather Map
Tropical Storm Tracking
New forecast layout! Learn more

10-Day Weather Forecast

Advertisements
Track Severe Weather on mobile